Rackerby, California
Current Conditions -  °F | °C
As of 11:53 PM on Friday 24 Oct 2014 (Local Time) from KOVE Reporting Station
Clear Clear  
Wind Chill: 63°   Ceiling: Unl
Heat Index: 63°   Visibility: 10mi
Dew Point: 50°   Wind: 9mph
Humidity: 63%   Direction: 180°S
Pressure: 29.91"   Gusts: NA
Location:  39.44°N, 121.32°W
Report Text: KOVE 250653Z AUTO 18008KT 10SM CLR 17/10 A2991 RMK AO2 PRESRR SLP129 T01720100
Loading
Personal Weather Stations






























Interactive Weather Map
Tropical Storm Tracking
New forecast layout! Learn more

10-Day Weather Forecast

Advertisements
Track Severe Weather on mobile